sensor_id;sensor_type;location;lat;lon;timestamp;pressure;altitude;pressure_sealevel;temperature;humidity
21781;BME280;52576;53.614;9.894;2023-03-14T00:00:47;98540.75;;;9.82;75.41
21781;BME280;52576;53.614;9.894;2023-03-14T00:02:52;98539.41;;;9.78;75.41
21781;BME280;52576;53.614;9.894;2023-03-14T00:04:55;98546.59;;;9.76;75.59
21781;BME280;52576;53.614;9.894;2023-03-14T00:06:59;98549.50;;;9.73;75.77
21781;BME280;52576;53.614;9.894;2023-03-14T00:09:02;98548.84;;;9.71;75.88
21781;BME280;52576;53.614;9.894;2023-03-14T00:11:07;98555.34;;;9.67;76.00
21781;BME280;52576;53.614;9.894;2023-03-14T00:13:12;98561.53;;;9.66;76.29
21781;BME280;52576;53.614;9.894;2023-03-14T00:15:16;98563.47;;;9.64;76.47
21781;BME280;52576;53.614;9.894;2023-03-14T00:17:19;98568.03;;;9.62;76.63
21781;BME280;52576;53.614;9.894;2023-03-14T00:19:23;98569.19;;;9.60;76.87
21781;BME280;52576;53.614;9.894;2023-03-14T00:21:26;98570.97;;;9.59;77.08
21781;BME280;52576;53.614;9.894;2023-03-14T00:23:31;98560.53;;;9.59;77.06
21781;BME280;52576;53.614;9.894;2023-03-14T00:25:34;98575.88;;;9.62;77.16
21781;BME280;52576;53.614;9.894;2023-03-14T00:27:38;98568.72;;;9.64;77.22
21781;BME280;52576;53.614;9.894;2023-03-14T00:29:43;98585.75;;;9.68;77.25
21781;BME280;52576;53.614;9.894;2023-03-14T00:31:47;98566.19;;;9.72;77.13
21781;BME280;52576;53.614;9.894;2023-03-14T00:33:52;98554.59;;;9.75;77.12
21781;BME280;52576;53.614;9.894;2023-03-14T00:35:57;98551.53;;;9.79;77.08
21781;BME280;52576;53.614;9.894;2023-03-14T00:38:03;98549.44;;;9.83;76.85
21781;BME280;52576;53.614;9.894;2023-03-14T00:40:08;98546.53;;;9.86;76.59
21781;BME280;52576;53.614;9.894;2023-03-14T00:42:11;98543.56;;;9.89;76.55
21781;BME280;52576;53.614;9.894;2023-03-14T00:44:15;98539.00;;;9.91;76.41
21781;BME280;52576;53.614;9.894;2023-03-14T00:46:20;98543.94;;;9.94;76.30
21781;BME280;52576;53.614;9.894;2023-03-14T00:48:23;98529.06;;;9.95;76.26
21781;BME280;52576;53.614;9.894;2023-03-14T00:50:26;98525.31;;;9.97;76.12
21781;BME280;52576;53.614;9.894;2023-03-14T00:52:30;98518.28;;;9.98;75.96
21781;BME280;52576;53.614;9.894;2023-03-14T00:54:33;98521.88;;;9.97;75.92
21781;BME280;52576;53.614;9.894;2023-03-14T00:56:37;98520.25;;;9.96;75.84
21781;BME280;52576;53.614;9.894;2023-03-14T00:58:43;98522.19;;;9.94;75.92
21781;BME280;52576;53.614;9.894;2023-03-14T01:00:46;98522.19;;;9.94;75.88
21781;BME280;52576;53.614;9.894;2023-03-14T01:02:52;98523.81;;;9.95;75.93
21781;BME280;52576;53.614;9.894;2023-03-14T01:04:58;98521.88;;;9.97;75.84
21781;BME280;52576;53.614;9.894;2023-03-14T01:07:01;98527.78;;;9.99;75.78
21781;BME280;52576;53.614;9.894;2023-03-14T01:09:06;98549.41;;;10.01;75.71
21781;BME280;52576;53.614;9.894;2023-03-14T01:11:15;98545.66;;;10.03;75.62
21781;BME280;52576;53.614;9.894;2023-03-14T01:13:19;98548.13;;;10.05;75.64
21781;BME280;52576;53.614;9.894;2023-03-14T01:15:22;98540.94;;;10.07;75.61
21781;BME280;52576;53.614;9.894;2023-03-14T01:17:25;98539.81;;;10.09;75.60
21781;BME280;52576;53.614;9.894;2023-03-14T01:19:32;98546.53;;;10.12;75.41
21781;BME280;52576;53.614;9.894;2023-03-14T01:21:35;98545.38;;;10.14;75.33
21781;BME280;52576;53.614;9.894;2023-03-14T01:23:39;98540.00;;;10.16;75.29
21781;BME280;52576;53.614;9.894;2023-03-14T01:25:43;98539.03;;;10.17;75.18
21781;BME280;52576;53.614;9.894;2023-03-14T01:27:46;98542.34;;;10.19;75.12
21781;BME280;52576;53.614;9.894;2023-03-14T01:29:50;98541.38;;;10.20;75.04
21781;BME280;52576;53.614;9.894;2023-03-14T01:31:53;98541.22;;;10.22;74.96
21781;BME280;52576;53.614;9.894;2023-03-14T01:33:57;98528.94;;;10.22;74.99
21781;BME280;52576;53.614;9.894;2023-03-14T01:36:03;98528.94;;;10.22;74.85
21781;BME280;52576;53.614;9.894;2023-03-14T01:38:07;98508.97;;;10.21;74.91
21781;BME280;52576;53.614;9.894;2023-03-14T01:40:11;98495.72;;;10.23;74.90
21781;BME280;52576;53.614;9.894;2023-03-14T01:42:16;98490.66;;;10.21;74.74
21781;BME280;52576;53.614;9.894;2023-03-14T01:44:20;98486.38;;;10.20;74.63
21781;BME280;52576;53.614;9.894;2023-03-14T01:46:32;98466.53;;;10.17;74.60
21781;BME280;52576;53.614;9.894;2023-03-14T01:48:39;98458.84;;;10.16;74.46
21781;BME280;52576;53.614;9.894;2023-03-14T01:50:43;98458.38;;;10.12;74.66
21781;BME280;52576;53.614;9.894;2023-03-14T01:52:49;98450.66;;;10.11;74.75
21781;BME280;52576;53.614;9.894;2023-03-14T01:54:56;98459.81;;;10.07;74.97
21781;BME280;52576;53.614;9.894;2023-03-14T01:57:05;98458.47;;;10.03;74.87
21781;BME280;52576;53.614;9.894;2023-03-14T01:59:10;98462.38;;;9.99;75.05
21781;BME280;52576;53.614;9.894;2023-03-14T02:01:16;98471.50;;;9.95;75.46
21781;BME280;52576;53.614;9.894;2023-03-14T02:03:21;98478.81;;;9.91;75.75
21781;BME280;52576;53.614;9.894;2023-03-14T02:05:29;98479.13;;;9.88;75.87
21781;BME280;52576;53.614;9.894;2023-03-14T02:07:46;98475.69;;;9.87;76.02
21781;BME280;52576;53.614;9.894;2023-03-14T02:09:58;98471.28;;;9.88;76.28
21781;BME280;52576;53.614;9.894;2023-03-14T02:12:08;98461.81;;;9.87;76.38
21781;BME280;52576;53.614;9.894;2023-03-14T02:14:28;98430.56;;;9.85;76.60
21781;BME280;52576;53.614;9.894;2023-03-14T02:16:58;98423.69;;;9.84;76.68
21781;BME280;52576;53.614;9.894;2023-03-14T02:19:31;98416.16;;;9.81;76.68
21781;BME280;52576;53.614;9.894;2023-03-14T02:22:00;98399.78;;;9.79;76.97
21781;BME280;52576;53.614;9.894;2023-03-14T02:24:17;98396.50;;;9.77;76.91
21781;BME280;52576;53.614;9.894;2023-03-14T02:26:35;98401.22;;;9.74;77.20
21781;BME280;52576;53.614;9.894;2023-03-14T02:28:42;98399.88;;;9.70;77.22
21781;BME280;52576;53.614;9.894;2023-03-14T02:30:46;98409.84;;;9.66;77.37
21781;BME280;52576;53.614;9.894;2023-03-14T02:32:51;98411.78;;;9.64;77.33
21781;BME280;52576;53.614;9.894;2023-03-14T02:34:59;98414.56;;;9.63;77.57
21781;BME280;52576;53.614;9.894;2023-03-14T02:37:04;98415.72;;;9.60;77.61
21781;BME280;52576;53.614;9.894;2023-03-14T02:39:12;98421.25;;;9.57;77.63
21781;BME280;52576;53.614;9.894;2023-03-14T02:41:19;98416.00;;;9.57;77.60
21781;BME280;52576;53.614;9.894;2023-03-14T02:43:32;98416.84;;;9.58;77.79
21781;BME280;52576;53.614;9.894;2023-03-14T02:45:42;98428.13;;;9.58;77.88
21781;BME280;52576;53.614;9.894;2023-03-14T02:47:54;98431.41;;;9.60;77.73
21781;BME280;52576;53.614;9.894;2023-03-14T02:50:02;98425.84;;;9.63;77.73
21781;BME280;52576;53.614;9.894;2023-03-14T02:52:07;98428.28;;;9.65;77.62
21781;BME280;52576;53.614;9.894;2023-03-14T02:54:11;98432.41;;;9.67;77.73
21781;BME280;52576;53.614;9.894;2023-03-14T02:56:14;98432.09;;;9.70;77.57
21781;BME280;52576;53.614;9.894;2023-03-14T02:58:19;98423.44;;;9.70;77.47
21781;BME280;52576;53.614;9.894;2023-03-14T03:00:27;98425.75;;;9.73;77.55
21781;BME280;52576;53.614;9.894;2023-03-14T03:02:34;98432.47;;;9.75;77.48
21781;BME280;52576;53.614;9.894;2023-03-14T03:04:37;98425.28;;;9.77;77.38
21781;BME280;52576;53.614;9.894;2023-03-14T03:06:41;98428.56;;;9.79;77.37
21781;BME280;52576;53.614;9.894;2023-03-14T03:08:44;98438.06;;;9.80;77.40
21781;BME280;52576;53.614;9.894;2023-03-14T03:10:49;98426.47;;;9.83;77.32
21781;BME280;52576;53.614;9.894;2023-03-14T03:12:52;98420.13;;;9.85;77.29
21781;BME280;52576;53.614;9.894;2023-03-14T03:14:59;98425.19;;;9.87;77.18
21781;BME280;52576;53.614;9.894;2023-03-14T03:17:04;98422.38;;;9.88;77.35
21781;BME280;52576;53.614;9.894;2023-03-14T03:19:09;98422.09;;;9.92;77.35
21781;BME280;52576;53.614;9.894;2023-03-14T03:21:13;98413.94;;;9.95;77.34
21781;BME280;52576;53.614;9.894;2023-03-14T03:23:18;98423.94;;;9.99;77.10
21781;BME280;52576;53.614;9.894;2023-03-14T03:25:21;98414.94;;;10.02;77.09
21781;BME280;52576;53.614;9.894;2023-03-14T03:27:24;98407.78;;;10.04;77.11
21781;BME280;52576;53.614;9.894;2023-03-14T03:29:28;98414.34;;;10.08;77.01
21781;BME280;52576;53.614;9.894;2023-03-14T03:31:32;98391.44;;;10.10;76.94
21781;BME280;52576;53.614;9.894;2023-03-14T03:33:35;98385.91;;;10.13;76.80
21781;BME280;52576;53.614;9.894;2023-03-14T03:35:44;98395.22;;;10.15;76.47
21781;BME280;52576;53.614;9.894;2023-03-14T03:37:51;98382.78;;;10.17;76.52
21781;BME280;52576;53.614;9.894;2023-03-14T03:39:56;98378.25;;;10.19;76.45
21781;BME280;52576;53.614;9.894;2023-03-14T03:41:59;98372.03;;;10.20;76.34
21781;BME280;52576;53.614;9.894;2023-03-14T03:44:03;98369.25;;;10.22;76.37
21781;BME280;52576;53.614;9.894;2023-03-14T03:46:08;98376.13;;;10.23;76.22
21781;BME280;52576;53.614;9.894;2023-03-14T03:48:11;98361.25;;;10.24;76.13
21781;BME280;52576;53.614;9.894;2023-03-14T03:50:15;98362.06;;;10.24;75.89
21781;BME280;52576;53.614;9.894;2023-03-14T03:52:20;98362.22;;;10.23;75.95
21781;BME280;52576;53.614;9.894;2023-03-14T03:54:24;98365.66;;;10.23;76.04
21781;BME280;52576;53.614;9.894;2023-03-14T03:56:28;98367.63;;;10.21;75.81
21781;BME280;52576;53.614;9.894;2023-03-14T03:58:31;98378.09;;;10.21;75.90
21781;BME280;52576;53.614;9.894;2023-03-14T04:00:35;98373.94;;;10.18;75.95
21781;BME280;52576;53.614;9.894;2023-03-14T04:02:38;98376.72;;;10.17;75.91
21781;BME280;52576;53.614;9.894;2023-03-14T04:04:44;98372.31;;;10.17;76.00
21781;BME280;52576;53.614;9.894;2023-03-14T04:06:47;98372.31;;;10.17;75.95
21781;BME280;52576;53.614;9.894;2023-03-14T04:08:53;98374.09;;;10.17;75.86
21781;BME280;52576;53.614;9.894;2023-03-14T04:11:07;98370.38;;;10.19;75.83
21781;BME280;52576;53.614;9.894;2023-03-14T04:13:28;98370.38;;;10.19;75.78
21781;BME280;52576;53.614;9.894;2023-03-14T04:15:32;98371.22;;;10.20;75.78
21781;BME280;52576;53.614;9.894;2023-03-14T04:17:42;98357.16;;;10.21;75.88
21781;BME280;52576;53.614;9.894;2023-03-14T04:19:48;98359.75;;;10.21;75.72
21781;BME280;52576;53.614;9.894;2023-03-14T04:21:55;98352.88;;;10.20;75.65
21781;BME280;52576;53.614;9.894;2023-03-14T04:24:04;98356.31;;;10.20;75.60
21781;BME280;52576;53.614;9.894;2023-03-14T04:26:09;98353.88;;;10.19;75.60
21781;BME280;52576;53.614;9.894;2023-03-14T04:28:13;98351.25;;;10.19;75.55
21781;BME280;52576;53.614;9.894;2023-03-14T04:30:16;98349.44;;;10.19;75.52
21781;BME280;52576;53.614;9.894;2023-03-14T04:32:27;98359.75;;;10.21;75.43
21781;BME280;52576;53.614;9.894;2023-03-14T04:34:32;98361.41;;;10.22;75.30
21781;BME280;52576;53.614;9.894;2023-03-14T04:36:36;98356.00;;;10.24;75.20
21781;BME280;52576;53.614;9.894;2023-03-14T04:38:45;98355.69;;;10.27;75.19
21781;BME280;52576;53.614;9.894;2023-03-14T04:40:53;98359.78;;;10.29;75.19
21781;BME280;52576;53.614;9.894;2023-03-14T04:43:01;98378.78;;;10.31;75.20
21781;BME280;52576;53.614;9.894;2023-03-14T04:45:06;98389.09;;;10.33;74.92
21781;BME280;52576;53.614;9.894;2023-03-14T04:47:11;98377.81;;;10.32;73.61
21781;BME280;52576;53.614;9.894;2023-03-14T04:49:15;98383.34;;;10.29;71.94
21781;BME280;52576;53.614;9.894;2023-03-14T04:51:19;98382.34;;;10.22;71.94
21781;BME280;52576;53.614;9.894;2023-03-14T04:53:25;98374.59;;;10.12;71.39
21781;BME280;52576;53.614;9.894;2023-03-14T04:55:31;98387.97;;;10.01;71.80
21781;BME280;52576;53.614;9.894;2023-03-14T04:57:36;98369.44;;;9.86;72.21
21781;BME280;52576;53.614;9.894;2023-03-14T04:59:43;98371.63;;;9.73;72.92
21781;BME280;52576;53.614;9.894;2023-03-14T05:01:59;98371.41;;;9.59;73.73
21781;BME280;52576;53.614;9.894;2023-03-14T05:04:18;98368.50;;;9.44;74.38
21781;BME280;52576;53.614;9.894;2023-03-14T05:06:30;98363.72;;;9.31;74.99
21781;BME280;52576;53.614;9.894;2023-03-14T05:08:42;98370.97;;;9.19;75.65
21781;BME280;52576;53.614;9.894;2023-03-14T05:11:03;98370.25;;;9.09;76.22
21781;BME280;52576;53.614;9.894;2023-03-14T05:13:31;98362.63;;;8.98;77.06
21781;BME280;52576;53.614;9.894;2023-03-14T05:15:45;98361.88;;;8.88;77.59
21781;BME280;52576;53.614;9.894;2023-03-14T05:18:08;98361.00;;;8.79;78.17
21781;BME280;52576;53.614;9.894;2023-03-14T05:20:38;98339.22;;;8.71;78.78
21781;BME280;52576;53.614;9.894;2023-03-14T05:22:56;98359.06;;;8.64;79.45
21781;BME280;52576;53.614;9.894;2023-03-14T05:25:23;98351.03;;;8.57;79.94
21781;BME280;52576;53.614;9.894;2023-03-14T05:27:56;98344.59;;;8.52;80.54
21781;BME280;52576;53.614;9.894;2023-03-14T05:30:35;98338.03;;;8.47;81.08
21781;BME280;52576;53.614;9.894;2023-03-14T05:32:41;98335.56;;;8.46;81.59
21781;BME280;52576;53.614;9.894;2023-03-14T05:34:47;98334.06;;;8.43;81.80
21781;BME280;52576;53.614;9.894;2023-03-14T05:37:02;98331.59;;;8.42;82.34
21781;BME280;52576;53.614;9.894;2023-03-14T05:39:37;98331.75;;;8.40;82.77
21781;BME280;52576;53.614;9.894;2023-03-14T05:41:59;98331.75;;;8.40;82.73
21781;BME280;52576;53.614;9.894;2023-03-14T05:44:29;98335.31;;;8.39;83.11
21781;BME280;52576;53.614;9.894;2023-03-14T05:47:09;98322.28;;;8.39;83.36
21781;BME280;52576;53.614;9.894;2023-03-14T05:49:23;98321.31;;;8.40;83.66
21781;BME280;52576;53.614;9.894;2023-03-14T05:51:36;98319.38;;;8.42;83.84
21781;BME280;52576;53.614;9.894;2023-03-14T05:54:06;98315.78;;;8.43;84.13
21781;BME280;52576;53.614;9.894;2023-03-14T05:56:36;98319.06;;;8.45;84.31
21781;BME280;52576;53.614;9.894;2023-03-14T05:58:45;98320.72;;;8.46;84.43
21781;BME280;52576;53.614;9.894;2023-03-14T06:01:02;98324.00;;;8.48;84.68
21781;BME280;52576;53.614;9.894;2023-03-14T06:03:26;98328.94;;;8.52;84.77
21781;BME280;52576;53.614;9.894;2023-03-14T06:05:29;98327.81;;;8.54;84.92
21781;BME280;52576;53.614;9.894;2023-03-14T06:07:35;98319.84;;;8.56;84.94
21781;BME280;52576;53.614;9.894;2023-03-14T06:09:40;98315.25;;;8.58;84.97
21781;BME280;52576;53.614;9.894;2023-03-14T06:11:43;98321.00;;;8.61;85.20
21781;BME280;52576;53.614;9.894;2023-03-14T06:13:48;98322.50;;;8.64;85.23
21781;BME280;52576;53.614;9.894;2023-03-14T06:15:51;98311.91;;;8.65;85.26
21781;BME280;52576;53.614;9.894;2023-03-14T06:17:55;98322.22;;;8.67;85.35
21781;BME280;52576;53.614;9.894;2023-03-14T06:20:01;98315.03;;;8.69;85.50
21781;BME280;52576;53.614;9.894;2023-03-14T06:22:06;98323.56;;;8.71;85.47
21781;BME280;52576;53.614;9.894;2023-03-14T06:24:11;98318.31;;;8.71;85.48
21781;BME280;52576;53.614;9.894;2023-03-14T06:26:20;98308.69;;;8.71;85.69
21781;BME280;52576;53.614;9.894;2023-03-14T06:28:23;98321.63;;;8.73;85.72
21781;BME280;52576;53.614;9.894;2023-03-14T06:30:31;98328.47;;;8.74;85.90
21781;BME280;52576;53.614;9.894;2023-03-14T06:32:34;98334.38;;;8.76;86.03
21781;BME280;52576;53.614;9.894;2023-03-14T06:34:42;98325.41;;;8.78;86.12
21781;BME280;52576;53.614;9.894;2023-03-14T06:36:47;98333.09;;;8.80;86.15
21781;BME280;52576;53.614;9.894;2023-03-14T06:38:50;98345.19;;;8.81;86.13
21781;BME280;52576;53.614;9.894;2023-03-14T06:40:54;98339.97;;;8.81;86.23
21781;BME280;52576;53.614;9.894;2023-03-14T06:43:07;98344.38;;;8.80;86.16
21781;BME280;52576;53.614;9.894;2023-03-14T06:45:13;98347.13;;;8.79;86.06
21781;BME280;52576;53.614;9.894;2023-03-14T06:47:17;98338.47;;;8.78;86.22
21781;BME280;52576;53.614;9.894;2023-03-14T06:49:20;98339.97;;;8.81;85.99
21781;BME280;52576;53.614;9.894;2023-03-14T06:51:27;98344.88;;;8.84;86.00
21781;BME280;52576;53.614;9.894;2023-03-14T06:53:32;98348.97;;;8.87;85.82
21781;BME280;52576;53.614;9.894;2023-03-14T06:55:36;98351.13;;;8.91;85.91
21781;BME280;52576;53.614;9.894;2023-03-14T06:57:41;98349.88;;;8.95;85.79
21781;BME280;52576;53.614;9.894;2023-03-14T06:59:46;98359.19;;;8.98;85.55
21781;BME280;52576;53.614;9.894;2023-03-14T07:01:49;98367.56;;;9.01;85.37
21781;BME280;52576;53.614;9.894;2023-03-14T07:03:53;98358.75;;;9.02;85.31
21781;BME280;52576;53.614;9.894;2023-03-14T07:05:57;98367.25;;;9.04;85.12
21781;BME280;52576;53.614;9.894;2023-03-14T07:08:01;98365.31;;;9.06;84.83
21781;BME280;52576;53.614;9.894;2023-03-14T07:10:07;98370.25;;;9.09;84.63
21781;BME280;52576;53.614;9.894;2023-03-14T07:12:11;98369.91;;;9.12;84.48
21781;BME280;52576;53.614;9.894;2023-03-14T07:14:14;98375.97;;;9.13;84.07
21781;BME280;52576;53.614;9.894;2023-03-14T07:16:18;98374.03;;;9.15;83.84
21781;BME280;52576;53.614;9.894;2023-03-14T07:18:22;98373.88;;;9.16;83.33
21781;BME280;52576;53.614;9.894;2023-03-14T07:20:25;98385.00;;;9.18;82.90
21781;BME280;52576;53.614;9.894;2023-03-14T07:22:29;98388.28;;;9.21;82.04
21781;BME280;52576;53.614;9.894;2023-03-14T07:24:33;98387.97;;;9.24;81.70
21781;BME280;52576;53.614;9.894;2023-03-14T07:26:37;98380.66;;;9.27;81.26
21781;BME280;52576;53.614;9.894;2023-03-14T07:28:41;98378.28;;;9.34;81.01
21781;BME280;52576;53.614;9.894;2023-03-14T07:30:49;98378.75;;;9.37;80.86
21781;BME280;52576;53.614;9.894;2023-03-14T07:32:58;98378.31;;;9.42;80.43
21781;BME280;52576;53.614;9.894;2023-03-14T07:35:03;98387.47;;;9.46;80.05
21781;BME280;52576;53.614;9.894;2023-03-14T07:37:09;98376.41;;;9.52;79.84
21781;BME280;52576;53.614;9.894;2023-03-14T07:39:13;98386.72;;;9.53;79.54
21781;BME280;52576;53.614;9.894;2023-03-14T07:41:40;98395.41;;;9.54;79.29
21781;BME280;52576;53.614;9.894;2023-03-14T07:44:02;98384.94;;;9.54;79.23
21781;BME280;52576;53.614;9.894;2023-03-14T07:46:05;98383.59;;;9.50;79.24
21781;BME280;52576;53.614;9.894;2023-03-14T07:48:09;98385.84;;;9.45;79.41
21781;BME280;52576;53.614;9.894;2023-03-14T07:50:12;98392.19;;;9.42;79.43
21781;BME280;52576;53.614;9.894;2023-03-14T07:52:16;98384.50;;;9.41;79.51
21781;BME280;52576;53.614;9.894;2023-03-14T07:54:19;98389.06;;;9.39;79.54
21781;BME280;52576;53.614;9.894;2023-03-14T07:56:23;98390.03;;;9.38;79.63
21781;BME280;52576;53.614;9.894;2023-03-14T07:58:27;98391.97;;;9.36;79.87
21781;BME280;52576;53.614;9.894;2023-03-14T08:00:31;98395.59;;;9.35;80.08
21781;BME280;52576;53.614;9.894;2023-03-14T08:02:34;98391.97;;;9.36;80.10
21781;BME280;52576;53.614;9.894;2023-03-14T08:04:38;98391.69;;;9.39;80.22
21781;BME280;52576;53.614;9.894;2023-03-14T08:06:42;98385.19;;;9.43;80.32
21781;BME280;52576;53.614;9.894;2023-03-14T08:08:45;98386.22;;;9.50;80.33
21781;BME280;52576;53.614;9.894;2023-03-14T08:10:49;98390.16;;;9.54;80.19
21781;BME280;52576;53.614;9.894;2023-03-14T08:12:54;98390.53;;;9.59;80.10
21781;BME280;52576;53.614;9.894;2023-03-14T08:15:00;98386.59;;;9.63;80.02
21781;BME280;52576;53.614;9.894;2023-03-14T08:17:04;98385.31;;;9.67;79.92
21781;BME280;52576;53.614;9.894;2023-03-14T08:19:10;98387.63;;;9.70;79.67
21781;BME280;52576;53.614;9.894;2023-03-14T08:21:14;98374.25;;;9.73;79.35
21781;BME280;52576;53.614;9.894;2023-03-14T08:23:17;98379.16;;;9.76;79.11
21781;BME280;52576;53.614;9.894;2023-03-14T08:25:21;98376.25;;;9.79;78.86
21781;BME280;52576;53.614;9.894;2023-03-14T08:27:24;98377.59;;;9.83;78.80
21781;BME280;52576;53.614;9.894;2023-03-14T08:29:27;98373.50;;;9.89;78.47
21781;BME280;52576;53.614;9.894;2023-03-14T08:31:32;98373.84;;;9.94;78.21
21781;BME280;52576;53.614;9.894;2023-03-14T08:33:36;98373.38;;;9.99;78.04
21781;BME280;52576;53.614;9.894;2023-03-14T08:35:39;98377.34;;;10.03;77.86
21781;BME280;52576;53.614;9.894;2023-03-14T08:37:43;98374.41;;;10.06;77.92
21781;BME280;52576;53.614;9.894;2023-03-14T08:39:46;98381.28;;;10.07;77.68
21781;BME280;52576;53.614;9.894;2023-03-14T08:41:50;98374.09;;;10.09;77.28
21781;BME280;52576;53.614;9.894;2023-03-14T08:43:53;98373.28;;;10.08;77.42
21781;BME280;52576;53.614;9.894;2023-03-14T08:45:58;98381.28;;;10.07;77.25
21781;BME280;52576;53.614;9.894;2023-03-14T08:48:03;98380.63;;;10.05;77.15
21781;BME280;52576;53.614;9.894;2023-03-14T08:50:08;98378.31;;;10.02;77.30
21781;BME280;52576;53.614;9.894;2023-03-14T08:52:17;98382.22;;;9.98;77.53
21781;BME280;52576;53.614;9.894;2023-03-14T08:54:20;98377.59;;;9.92;77.95
21781;BME280;52576;53.614;9.894;2023-03-14T08:56:24;98388.38;;;9.88;78.16
21781;BME280;52576;53.614;9.894;2023-03-14T08:58:27;98374.66;;;9.86;78.51
21781;BME280;52576;53.614;9.894;2023-03-14T09:00:31;98378.25;;;9.85;78.79
21781;BME280;52576;53.614;9.894;2023-03-14T09:02:34;98378.41;;;9.84;78.94
21781;BME280;52576;53.614;9.894;2023-03-14T09:04:39;98386.56;;;9.81;79.24
21781;BME280;52576;53.614;9.894;2023-03-14T09:06:42;98379.84;;;9.78;79.39
21781;BME280;52576;53.614;9.894;2023-03-14T09:08:46;98386.88;;;9.78;79.52
21781;BME280;52576;53.614;9.894;2023-03-14T09:10:49;98377.22;;;9.78;79.72
21781;BME280;52576;53.614;9.894;2023-03-14T09:12:53;98382.47;;;9.78;79.63
21781;BME280;52576;53.614;9.894;2023-03-14T09:14:56;98378.03;;;9.79;80.08
21781;BME280;52576;53.614;9.894;2023-03-14T09:17:00;98379.84;;;9.78;80.28
21781;BME280;52576;53.614;9.894;2023-03-14T09:19:03;98372.97;;;9.77;80.39
21781;BME280;52576;53.614;9.894;2023-03-14T09:21:08;98386.03;;;9.77;80.40
21781;BME280;52576;53.614;9.894;2023-03-14T09:23:12;98383.44;;;9.77;80.58
21781;BME280;52576;53.614;9.894;2023-03-14T09:25:16;98382.47;;;9.78;80.70
21781;BME280;52576;53.614;9.894;2023-03-14T09:27:19;98384.41;;;9.76;80.92
21781;BME280;52576;53.614;9.894;2023-03-14T09:29:22;98381.13;;;9.74;81.03
21781;BME280;52576;53.614;9.894;2023-03-14T09:31:26;98394.34;;;9.73;81.06
21781;BME280;52576;53.614;9.894;2023-03-14T09:33:30;98393.00;;;9.69;81.06
21781;BME280;52576;53.614;9.894;2023-03-14T09:35:34;98390.84;;;9.64;81.39
21781;BME280;52576;53.614;9.894;2023-03-14T09:37:39;98396.44;;;9.61;81.50
21781;BME280;52576;53.614;9.894;2023-03-14T09:39:42;98397.84;;;9.56;81.76
21781;BME280;52576;53.614;9.894;2023-03-14T09:41:48;98437.53;;;9.51;81.90
21781;BME280;52576;53.614;9.894;2023-03-14T09:43:58;98455.47;;;9.46;81.80
21781;BME280;52576;53.614;9.894;2023-03-14T09:46:04;98469.97;;;9.23;80.34
21781;BME280;52576;53.614;9.894;2023-03-14T09:48:14;98482.03;;;8.88;79.51
21781;BME280;52576;53.614;9.894;2023-03-14T09:50:19;98492.16;;;8.56;79.83
21781;BME280;52576;53.614;9.894;2023-03-14T09:52:25;98498.28;;;8.27;80.10
21781;BME280;52576;53.614;9.894;2023-03-14T09:54:36;98510.03;;;8.04;80.66
21781;BME280;52576;53.614;9.894;2023-03-14T09:56:41;98533.41;;;7.86;81.27
21781;BME280;52576;53.614;9.894;2023-03-14T09:58:47;98541.94;;;7.69;81.36
21781;BME280;52576;53.614;9.894;2023-03-14T10:00:54;98534.97;;;7.50;81.36
21781;BME280;52576;53.614;9.894;2023-03-14T10:03:14;98562.75;;;7.30;81.38
21781;BME280;52576;53.614;9.894;2023-03-14T10:05:23;98554.09;;;7.10;81.61
21781;BME280;52576;53.614;9.894;2023-03-14T10:07:29;98570.66;;;6.90;81.67
21781;BME280;52576;53.614;9.894;2023-03-14T10:09:34;98575.25;;;6.77;82.05
21781;BME280;52576;53.614;9.894;2023-03-14T10:11:39;98590.28;;;6.64;82.55
21781;BME280;52576;53.614;9.894;2023-03-14T10:14:03;98597.47;;;6.51;82.65
21781;BME280;52576;53.614;9.894;2023-03-14T10:16:08;98604.56;;;6.39;82.92
21781;BME280;52576;53.614;9.894;2023-03-14T10:18:12;98620.09;;;6.29;83.28
21781;BME280;52576;53.614;9.894;2023-03-14T10:20:30;98626.09;;;6.20;83.45
21781;BME280;52576;53.614;9.894;2023-03-14T10:22:37;98629.56;;;6.09;83.42
21781;BME280;52576;53.614;9.894;2023-03-14T10:24:45;98640.00;;;5.98;83.33
21781;BME280;52576;53.614;9.894;2023-03-14T10:26:49;98661.66;;;5.88;83.18
21781;BME280;52576;53.614;9.894;2023-03-14T10:29:02;98668.78;;;5.74;82.97
21781;BME280;52576;53.614;9.894;2023-03-14T10:31:07;98685.50;;;5.61;82.66
21781;BME280;52576;53.614;9.894;2023-03-14T10:33:19;98701.22;;;5.48;82.40
21781;BME280;52576;53.614;9.894;2023-03-14T10:35:24;98700.78;;;5.32;82.20
21781;BME280;52576;53.614;9.894;2023-03-14T10:37:27;98711.44;;;5.18;82.14
21781;BME280;52576;53.614;9.894;2023-03-14T10:39:41;98721.09;;;5.04;81.75
21781;BME280;52576;53.614;9.894;2023-03-14T10:41:51;98731.22;;;4.96;82.14
21781;BME280;52576;53.614;9.894;2023-03-14T10:43:57;98743.75;;;4.91;82.46
21781;BME280;52576;53.614;9.894;2023-03-14T10:46:08;98745.88;;;4.86;82.04
21781;BME280;52576;53.614;9.894;2023-03-14T10:48:34;98768.75;;;4.81;82.24
21781;BME280;52576;53.614;9.894;2023-03-14T10:50:48;98777.69;;;4.77;82.15
21781;BME280;52576;53.614;9.894;2023-03-14T10:52:52;98797.03;;;4.73;82.05
21781;BME280;52576;53.614;9.894;2023-03-14T10:55:11;98804.56;;;4.65;81.20
21781;BME280;52576;53.614;9.894;2023-03-14T10:57:14;98803.47;;;4.56;80.44
21781;BME280;52576;53.614;9.894;2023-03-14T10:59:18;98804.84;;;4.49;80.67
21781;BME280;52576;53.614;9.894;2023-03-14T11:01:31;98819.81;;;4.46;80.96
21781;BME280;52576;53.614;9.894;2023-03-14T11:03:43;98826.88;;;4.43;80.96
21781;BME280;52576;53.614;9.894;2023-03-14T11:05:53;98832.31;;;4.40;81.02
21781;BME280;52576;53.614;9.894;2023-03-14T11:08:04;98851.41;;;4.39;81.06
21781;BME280;52576;53.614;9.894;2023-03-14T11:10:24;98850.69;;;4.37;81.11
21781;BME280;52576;53.614;9.894;2023-03-14T11:12:41;98859.41;;;4.36;80.31
21781;BME280;52576;53.614;9.894;2023-03-14T11:14:55;98879.44;;;4.34;80.83
21781;BME280;52576;53.614;9.894;2023-03-14T11:17:07;98880.97;;;4.37;80.63
21781;BME280;52576;53.614;9.894;2023-03-14T11:19:21;98886.06;;;4.38;80.50
21781;BME280;52576;53.614;9.894;2023-03-14T11:21:35;98891.25;;;4.38;79.79